createdAt,value
2019-03-26T00:02:16.258Z,5.20
2019-03-26T00:04:46.224Z,4.90
2019-03-26T00:07:16.212Z,5.73
2019-03-26T00:09:46.127Z,5.20
2019-03-26T00:12:16.066Z,5.40
2019-03-26T00:14:46.031Z,6.27
2019-03-26T00:17:15.974Z,5.77
2019-03-26T00:19:45.933Z,5.73
2019-03-26T00:22:15.879Z,5.80
2019-03-26T00:24:45.851Z,4.73
2019-03-26T00:27:15.783Z,6.40
2019-03-26T00:29:45.746Z,6.07
2019-03-26T00:32:15.692Z,6.50
2019-03-26T00:34:45.650Z,5.97
2019-03-26T00:37:16.662Z,6.87
2019-03-26T00:39:46.630Z,6.73
2019-03-26T00:42:16.575Z,6.03
2019-03-26T00:44:46.534Z,6.43
2019-03-26T00:47:16.553Z,6.53
2019-03-26T00:49:46.546Z,6.13
2019-03-26T00:52:16.486Z,5.97
2019-03-26T00:54:46.522Z,6.60
2019-03-26T00:57:16.466Z,6.40
2019-03-26T00:59:46.438Z,6.77
2019-03-26T01:02:17.492Z,7.20
2019-03-26T01:04:47.466Z,6.97
2019-03-26T01:07:17.415Z,6.40
2019-03-26T01:09:47.379Z,7.47
2019-03-26T01:12:17.385Z,7.10
2019-03-26T01:14:48.359Z,7.33
2019-03-26T01:17:18.354Z,7.37
2019-03-26T01:19:48.318Z,7.80
2019-03-26T01:22:18.258Z,7.50
2019-03-26T01:24:49.194Z,7.40
2019-03-26T01:27:19.134Z,8.70
2019-03-26T01:29:49.103Z,7.83
2019-03-26T01:32:19.049Z,8.50
2019-03-26T01:34:49.014Z,7.50
2019-03-26T01:37:18.958Z,7.27
2019-03-26T01:39:49.045Z,7.90
2019-03-26T01:42:18.934Z,8.20
2019-03-26T01:44:48.894Z,7.30
2019-03-26T01:47:18.838Z,7.90
2019-03-26T01:49:48.804Z,7.77
2019-03-26T01:52:18.741Z,8.03
2019-03-26T01:54:48.706Z,6.93
2019-03-26T01:57:18.658Z,6.87
2019-03-26T01:59:49.206Z,7.50
2019-03-26T02:02:19.150Z,7.53
2019-03-26T02:04:59.321Z,7.33
2019-03-26T02:07:20.687Z,7.93
2019-03-26T02:09:50.655Z,8.20
2019-03-26T02:12:20.612Z,8.23
2019-03-26T02:14:50.580Z,8.13
2019-03-26T02:17:20.594Z,9.07
2019-03-26T02:19:50.576Z,8.73
2019-03-26T02:22:20.520Z,9.83
2019-03-26T02:24:50.497Z,9.13
2019-03-26T02:27:20.448Z,9.33
2019-03-26T02:29:50.421Z,9.43
2019-03-26T02:32:20.537Z,9.77
2019-03-26T02:34:50.512Z,8.57
2019-03-26T02:37:20.458Z,9.63
2019-03-26T02:39:50.437Z,10.87
2019-03-26T02:42:20.395Z,9.90
2019-03-26T02:44:50.364Z,9.67
2019-03-26T02:47:20.316Z,10.50
2019-03-26T02:49:50.295Z,10.50
2019-03-26T02:52:20.249Z,10.43
2019-03-26T02:54:50.239Z,10.43
2019-03-26T02:57:20.188Z,10.57
2019-03-26T02:59:50.173Z,10.40
2019-03-26T03:02:20.393Z,9.43
2019-03-26T03:04:50.373Z,10.57
2019-03-26T03:07:20.328Z,11.33
2019-03-26T03:09:50.308Z,11.27
2019-03-26T03:12:20.264Z,11.80
2019-03-26T03:14:50.241Z,11.60
2019-03-26T03:17:20.252Z,11.53
2019-03-26T03:19:50.230Z,11.27
2019-03-26T03:22:20.184Z,10.60
2019-03-26T03:24:50.165Z,10.73
2019-03-26T03:27:20.120Z,10.83
2019-03-26T03:29:50.105Z,10.87
2019-03-26T03:32:20.057Z,11.03
2019-03-26T03:34:51.113Z,11.60
2019-03-26T03:37:21.070Z,11.10
2019-03-26T03:39:51.044Z,12.57
2019-03-26T03:42:21.004Z,12.17
2019-03-26T03:44:50.979Z,11.33
2019-03-26T03:47:21.481Z,11.53
2019-03-26T03:49:51.528Z,10.70
2019-03-26T03:52:22.356Z,11.47
2019-03-26T03:54:53.876Z,11.20
2019-03-26T03:57:25.739Z,11.37
2019-03-26T03:59:57.829Z,11.30
2019-03-26T04:02:27.786Z,10.77
2019-03-26T04:04:57.765Z,10.63
2019-03-26T04:07:27.711Z,11.10
2019-03-26T04:09:57.689Z,12.00
2019-03-26T04:12:27.649Z,11.57
2019-03-26T04:14:57.632Z,13.20
2019-03-26T04:17:27.584Z,11.90
2019-03-26T04:19:57.567Z,11.80
2019-03-26T04:22:27.515Z,11.43
2019-03-26T04:24:57.530Z,12.43
2019-03-26T04:27:27.496Z,11.50
2019-03-26T04:29:57.448Z,12.27
2019-03-26T04:32:27.425Z,11.90
2019-03-26T04:34:57.455Z,11.70
2019-03-26T04:37:27.441Z,11.67
2019-03-26T04:39:57.466Z,11.70
2019-03-26T04:42:27.958Z,11.27
2019-03-26T04:44:57.913Z,12.10
2019-03-26T04:47:27.892Z,10.77
2019-03-26T04:49:57.838Z,11.70
2019-03-26T04:52:27.882Z,11.47
2019-03-26T04:54:57.841Z,11.30
2019-03-26T04:57:27.812Z,12.63
2019-03-26T04:59:58.730Z,11.30
2019-03-26T05:02:28.713Z,10.80
2019-03-26T05:04:58.658Z,11.63
2019-03-26T05:07:28.639Z,11.60
2019-03-26T05:09:58.586Z,10.73
2019-03-26T05:12:28.559Z,11.40
2019-03-26T05:14:58.518Z,12.00
2019-03-26T05:17:28.493Z,12.17
2019-03-26T05:19:58.447Z,12.73
2019-03-26T05:22:28.416Z,13.20
2019-03-26T05:24:58.363Z,12.73
2019-03-26T05:27:28.335Z,13.37
2019-03-26T05:29:58.291Z,12.50
2019-03-26T05:32:28.259Z,12.13
2019-03-26T05:34:58.210Z,12.13
2019-03-26T05:37:28.183Z,12.70
2019-03-26T05:39:58.130Z,11.90
2019-03-26T05:42:28.104Z,11.50
2019-03-26T05:44:58.063Z,11.63
2019-03-26T05:47:28.034Z,11.33
2019-03-26T05:49:57.982Z,11.37
2019-03-26T05:52:27.958Z,11.27
2019-03-26T05:54:57.901Z,11.47
2019-03-26T05:57:27.874Z,11.57
2019-03-26T05:59:57.831Z,11.97
2019-03-26T06:02:27.799Z,11.23
2019-03-26T06:04:57.746Z,13.43
2019-03-26T06:07:27.724Z,10.87
2019-03-26T06:09:57.671Z,11.70
2019-03-26T06:12:27.647Z,12.83
2019-03-26T06:14:57.603Z,11.97
2019-03-26T06:17:27.584Z,12.20
2019-03-26T06:19:57.527Z,12.07
2019-03-26T06:22:27.500Z,13.90
2019-03-26T06:24:57.451Z,13.27
2019-03-26T06:27:27.419Z,11.63
2019-03-26T06:29:57.371Z,11.67
2019-03-26T06:32:27.345Z,12.80
2019-03-26T06:34:57.294Z,13.40
2019-03-26T06:37:27.278Z,13.30
2019-03-26T06:39:58.474Z,13.53
2019-03-26T06:42:28.827Z,14.53
2019-03-26T06:44:58.778Z,13.83
2019-03-26T06:47:28.746Z,13.83
2019-03-26T06:49:58.706Z,14.20
2019-03-26T06:52:28.687Z,13.43
2019-03-26T06:54:58.664Z,13.37
2019-03-26T06:57:35.525Z,13.80
2019-03-26T07:00:00.367Z,13.33
2019-03-26T07:02:30.442Z,12.70
2019-03-26T07:05:00.488Z,15.07
2019-03-26T07:07:31.648Z,12.97
2019-03-26T07:10:02.057Z,13.87
2019-03-26T07:12:32.271Z,13.57
2019-03-26T07:15:02.301Z,14.17
2019-03-26T07:17:32.272Z,13.50
2019-03-26T07:20:02.248Z,14.50
2019-03-26T07:22:32.206Z,14.47
2019-03-26T07:25:02.231Z,14.23
2019-03-26T07:27:32.195Z,14.47
2019-03-26T07:30:02.150Z,16.37
2019-03-26T07:32:32.238Z,15.50
2019-03-26T07:35:02.193Z,18.73
2019-03-26T07:37:44.611Z,16.27
2019-03-26T07:40:04.722Z,17.50
2019-03-26T07:42:34.685Z,17.07
2019-03-26T07:45:07.786Z,17.83
2019-03-26T07:47:37.935Z,18.63
2019-03-26T07:50:08.285Z,17.30
2019-03-26T07:52:38.247Z,20.30
2019-03-26T07:55:08.615Z,19.23
2019-03-26T07:57:38.581Z,21.20
2019-03-26T08:00:10.549Z,20.23
2019-03-26T08:02:40.586Z,20.73
2019-03-26T08:05:10.532Z,20.17
2019-03-26T08:07:40.502Z,20.43
2019-03-26T08:10:10.595Z,21.23
2019-03-26T08:12:40.589Z,22.17
2019-03-26T08:15:10.651Z,19.77
2019-03-26T08:17:40.655Z,20.73
2019-03-26T08:20:12.579Z,20.17
2019-03-26T08:22:42.718Z,19.43
2019-03-26T08:25:12.800Z,17.00
2019-03-26T08:27:42.771Z,17.63
2019-03-26T08:30:13.281Z,17.50
2019-03-26T08:32:43.251Z,16.10
2019-03-26T08:35:13.472Z,18.33
2019-03-26T08:37:43.455Z,19.37
2019-03-26T08:40:13.866Z,16.77
2019-03-26T08:42:44.577Z,15.80
2019-03-26T08:45:15.535Z,18.17
2019-03-26T08:47:47.200Z,15.90
2019-03-26T08:50:18.305Z,15.30
2019-03-26T08:52:48.657Z,15.10
2019-03-26T08:55:19.739Z,14.37
2019-03-26T08:57:49.931Z,14.93
2019-03-26T09:00:20.171Z,16.73
2019-03-26T09:02:50.132Z,16.03
2019-03-26T09:05:45.691Z,16.27
2019-03-26T09:08:25.197Z,16.47
2019-03-26T09:10:52.739Z,16.23
2019-03-26T09:13:28.450Z,16.00
2019-03-26T09:15:59.824Z,15.03
2019-03-26T09:18:29.865Z,15.67
2019-03-26T09:20:59.899Z,16.07
2019-03-26T09:23:29.905Z,15.40
2019-03-26T09:25:59.958Z,13.87
2019-03-26T09:28:29.934Z,13.50
2019-03-26T09:30:59.906Z,11.50
2019-03-26T09:33:29.879Z,10.73
2019-03-26T09:35:59.854Z,12.13
2019-03-26T09:38:38.794Z,9.97
2019-03-26T09:41:01.435Z,9.10
2019-03-26T09:43:31.379Z,9.93
2019-03-26T09:46:01.715Z,9.50
2019-03-26T09:48:32.655Z,10.00
2019-03-26T09:51:02.607Z,8.83
2019-03-26T09:53:32.578Z,9.30
2019-03-26T09:56:04.884Z,10.03
2019-03-26T09:58:39.921Z,10.13
2019-03-26T10:01:10.687Z,9.67
2019-03-26T10:03:40.651Z,8.63
2019-03-26T10:06:22.874Z,9.63
2019-03-26T10:08:52.627Z,9.43
2019-03-26T10:11:31.281Z,10.07
2019-03-26T10:14:15.112Z,9.23
2019-03-26T10:16:46.969Z,9.87
2019-03-26T10:19:17.215Z,10.07
2019-03-26T10:21:47.311Z,11.93
2019-03-26T10:24:17.280Z,8.90
2019-03-26T10:26:47.227Z,9.60
2019-03-26T10:29:29.544Z,9.07
2019-03-26T10:31:48.983Z,8.30
2019-03-26T10:34:21.775Z,7.10
2019-03-26T10:36:51.800Z,7.33
2019-03-26T10:39:30.768Z,5.17
2019-03-26T10:41:57.218Z,3.33
2019-03-26T10:44:27.177Z,4.40
2019-03-26T10:46:57.141Z,2.30
2019-03-26T10:49:28.274Z,2.90
2019-03-26T10:51:58.155Z,2.93
2019-03-26T10:54:28.136Z,3.47
2019-03-26T10:56:58.201Z,3.63
2019-03-26T10:59:28.285Z,3.53
2019-03-26T11:01:59.906Z,2.80
2019-03-26T11:04:29.869Z,3.63
2019-03-26T11:06:59.821Z,4.00
2019-03-26T11:09:47.399Z,3.50
2019-03-26T11:12:20.679Z,2.73
2019-03-26T11:14:52.182Z,3.17
2019-03-26T11:17:30.861Z,2.97
2019-03-26T11:20:05.085Z,3.03
2019-03-26T11:22:36.426Z,2.97
2019-03-26T11:25:08.219Z,3.07
2019-03-26T11:27:38.239Z,2.63
2019-03-26T11:30:08.947Z,2.93
2019-03-26T11:32:38.959Z,2.80
2019-03-26T11:35:09.459Z,3.47
2019-03-26T11:37:39.773Z,2.70
2019-03-26T11:40:10.278Z,2.70
2019-03-26T11:42:40.220Z,3.17
2019-03-26T11:45:10.821Z,2.47
2019-03-26T11:47:46.350Z,2.90
2019-03-26T11:50:22.606Z,2.87
2019-03-26T11:52:58.796Z,2.50
2019-03-26T11:55:31.337Z,2.70
2019-03-26T11:58:02.384Z,2.63
2019-03-26T12:00:37.593Z,3.07
2019-03-26T12:03:14.039Z,3.60
2019-03-26T12:05:44.000Z,2.27
2019-03-26T12:08:13.947Z,2.70
2019-03-26T12:10:43.919Z,2.83
2019-03-26T12:13:21.358Z,3.17
2019-03-26T12:18:47.716Z,2.73
2019-03-26T12:21:17.687Z,3.13
2019-03-26T12:23:47.706Z,2.70
2019-03-26T12:26:28.385Z,2.90
2019-03-26T12:29:00.484Z,2.43
2019-03-26T12:31:30.504Z,3.03
2019-03-26T12:34:00.824Z,2.70
2019-03-26T12:36:39.734Z,2.77
2019-03-26T12:39:02.547Z,2.63
2019-03-26T12:41:33.952Z,3.23
2019-03-26T12:44:05.763Z,3.40
2019-03-26T12:46:35.726Z,3.03
2019-03-26T12:49:05.676Z,3.73
2019-03-26T12:51:35.648Z,3.50
2019-03-26T12:54:05.591Z,4.33
2019-03-26T12:56:35.588Z,4.57
2019-03-26T12:59:05.671Z,4.20
2019-03-26T13:01:35.642Z,4.13
2019-03-26T13:04:12.632Z,3.20
2019-03-26T13:06:37.168Z,4.20
2019-03-26T13:09:08.919Z,4.20
2019-03-26T13:11:38.883Z,4.10
2019-03-26T13:14:08.894Z,3.40
2019-03-26T13:16:38.863Z,3.43
2019-03-26T13:19:09.256Z,3.00
2019-03-26T13:21:39.285Z,3.37
2019-03-26T13:24:11.509Z,4.00
2019-03-26T13:26:40.819Z,5.53
2019-03-26T13:29:10.768Z,5.93
2019-03-26T13:31:40.851Z,4.23
2019-03-26T13:34:10.865Z,3.20
2019-03-26T13:36:40.838Z,2.97
2019-03-26T13:39:10.876Z,3.17
2019-03-26T13:41:40.843Z,3.10
2019-03-26T13:44:10.788Z,2.90
2019-03-26T13:46:40.761Z,3.20
2019-03-26T13:49:10.966Z,3.10
2019-03-26T13:51:40.936Z,3.27
2019-03-26T13:54:10.958Z,2.77
2019-03-26T13:56:40.915Z,2.67
2019-03-26T13:59:10.859Z,3.07
2019-03-26T14:01:40.822Z,2.67
2019-03-26T14:04:10.766Z,3.30
2019-03-26T14:06:40.736Z,2.83
2019-03-26T14:09:10.738Z,2.37
2019-03-26T14:11:40.703Z,2.93
2019-03-26T14:14:10.646Z,2.80
2019-03-26T14:16:40.615Z,2.63
2019-03-26T14:19:10.627Z,2.93
2019-03-26T14:21:40.598Z,2.97
2019-03-26T14:24:13.186Z,2.97
2019-03-26T14:26:42.297Z,2.80
2019-03-26T14:29:12.241Z,3.10
2019-03-26T14:31:43.252Z,3.20
2019-03-26T14:34:13.267Z,3.07
2019-03-26T14:36:43.232Z,4.10
2019-03-26T14:39:13.179Z,3.00
2019-03-26T14:41:43.150Z,2.80
2019-03-26T14:44:13.095Z,3.13
2019-03-26T14:46:43.071Z,2.80
2019-03-26T14:49:13.009Z,2.47
2019-03-26T14:51:42.972Z,2.67
2019-03-26T14:54:12.914Z,3.20
2019-03-26T14:56:42.883Z,2.67
2019-03-26T14:59:12.823Z,2.63
2019-03-26T15:01:42.792Z,3.10
2019-03-26T15:04:12.736Z,2.80
2019-03-26T15:06:42.711Z,2.77
2019-03-26T15:09:12.639Z,2.93
2019-03-26T15:11:42.781Z,2.30
2019-03-26T15:14:12.715Z,3.00
2019-03-26T15:16:43.361Z,3.35
2019-03-26T15:19:13.302Z,2.33
2019-03-26T15:21:43.267Z,2.20
2019-03-26T15:24:13.209Z,2.40
2019-03-26T15:26:43.176Z,3.10
2019-03-26T15:29:13.123Z,3.00
2019-03-26T15:31:43.158Z,3.43
2019-03-26T15:34:13.103Z,2.50
2019-03-26T15:36:43.077Z,3.10
2019-03-26T15:39:13.088Z,3.40
2019-03-26T15:41:43.115Z,2.83
2019-03-26T15:44:13.050Z,3.10
2019-03-26T15:46:43.020Z,2.67
2019-03-26T15:49:12.968Z,2.97
2019-03-26T15:51:42.938Z,3.20
2019-03-26T15:54:12.887Z,3.10
2019-03-26T15:56:42.941Z,3.07
2019-03-26T15:59:12.903Z,3.77
2019-03-26T16:01:42.867Z,3.87
2019-03-26T16:04:12.805Z,2.70
2019-03-26T16:06:42.851Z,6.57
2019-03-26T16:09:12.790Z,3.10
2019-03-26T16:11:42.759Z,3.30
2019-03-26T16:14:12.704Z,3.43
2019-03-26T16:16:42.671Z,2.80
2019-03-26T16:19:12.617Z,2.90
2019-03-26T16:21:42.649Z,2.90
2019-03-26T16:24:12.736Z,2.70
2019-03-26T16:26:43.667Z,2.80
2019-03-26T16:29:13.610Z,2.93
2019-03-26T16:31:43.642Z,2.30
2019-03-26T16:34:13.588Z,2.67
2019-03-26T16:36:43.551Z,3.50
2019-03-26T16:39:13.499Z,3.43
2019-03-26T16:41:49.051Z,2.97
2019-03-26T16:44:15.061Z,2.27
2019-03-26T16:46:44.995Z,3.23
2019-03-26T16:49:14.965Z,3.03
2019-03-26T16:51:44.907Z,3.33
2019-03-26T16:54:14.871Z,3.47
2019-03-26T16:56:44.821Z,3.37
2019-03-26T16:59:14.784Z,3.20
2019-03-26T17:01:44.780Z,3.20
2019-03-26T17:04:14.823Z,3.77
2019-03-26T17:06:44.778Z,3.70
2019-03-26T17:09:14.748Z,3.80
2019-03-26T17:11:44.707Z,3.40
2019-03-26T17:14:14.676Z,3.40
2019-03-26T17:16:44.615Z,3.37
2019-03-26T17:19:14.651Z,3.20
2019-03-26T17:21:44.600Z,3.57
2019-03-26T17:24:14.567Z,3.70
2019-03-26T17:26:44.512Z,3.83
2019-03-26T17:29:14.483Z,3.90
2019-03-26T17:31:44.447Z,3.73
2019-03-26T17:34:14.407Z,3.80
2019-03-26T17:36:44.351Z,4.13
2019-03-26T17:39:14.311Z,4.20
2019-03-26T17:41:44.247Z,3.53
2019-03-26T17:44:14.212Z,3.33
2019-03-26T17:46:44.154Z,3.67
2019-03-26T17:49:15.043Z,3.77
2019-03-26T17:51:44.988Z,4.10
2019-03-26T17:54:14.951Z,4.47
2019-03-26T17:56:47.411Z,3.67
2019-03-26T17:59:16.482Z,4.17
2019-03-26T18:01:46.506Z,4.80
2019-03-26T18:04:16.471Z,4.47
2019-03-26T18:06:46.420Z,4.53
2019-03-26T18:09:16.383Z,4.40
2019-03-26T18:11:46.331Z,4.30
2019-03-26T18:14:16.303Z,4.50
2019-03-26T18:16:46.244Z,4.63
2019-03-26T18:19:16.212Z,4.13
2019-03-26T18:21:51.782Z,4.27
2019-03-26T18:24:17.752Z,5.43
2019-03-26T18:26:47.696Z,5.07
2019-03-26T18:29:17.656Z,4.53
2019-03-26T18:31:47.600Z,4.50
2019-03-26T18:34:17.574Z,4.40
2019-03-26T18:36:47.611Z,4.73
2019-03-26T18:39:17.647Z,5.23
2019-03-26T18:41:48.607Z,4.70
2019-03-26T18:44:18.573Z,4.57
2019-03-26T18:46:48.523Z,4.73
2019-03-26T18:49:18.557Z,5.57
2019-03-26T18:51:49.574Z,5.73
2019-03-26T18:54:19.720Z,8.30
2019-03-26T18:56:49.658Z,6.63
2019-03-26T18:59:19.631Z,6.37
2019-03-26T19:01:49.583Z,6.80
2019-03-26T19:04:19.611Z,8.33
2019-03-26T19:06:50.116Z,6.27
2019-03-26T19:09:20.271Z,6.83
2019-03-26T19:11:50.625Z,6.00
2019-03-26T19:14:20.628Z,7.90
2019-03-26T19:16:50.826Z,8.93
2019-03-26T19:19:21.619Z,6.70
2019-03-26T19:21:51.685Z,6.70
2019-03-26T19:24:22.959Z,7.20
2019-03-26T19:26:53.310Z,6.47
2019-03-26T19:29:23.547Z,7.87
2019-03-26T19:31:54.453Z,7.23
2019-03-26T19:34:24.714Z,6.27
2019-03-26T19:36:54.727Z,8.20
2019-03-26T19:39:24.707Z,6.47
2019-03-26T19:41:54.646Z,7.17
2019-03-26T19:44:24.614Z,8.53
2019-03-26T19:46:54.797Z,8.20
2019-03-26T19:49:24.707Z,6.83
2019-03-26T19:51:54.651Z,8.27
2019-03-26T19:54:24.716Z,8.13
2019-03-26T19:56:54.842Z,8.83
2019-03-26T19:59:24.948Z,8.53
2019-03-26T20:01:54.907Z,8.57
2019-03-26T20:04:24.969Z,8.87
2019-03-26T20:06:54.899Z,8.50
2019-03-26T20:09:25.118Z,7.50
2019-03-26T20:11:55.083Z,8.17
2019-03-26T20:14:25.271Z,5.63
2019-03-26T20:16:55.286Z,6.50
2019-03-26T20:19:25.617Z,5.90
2019-03-26T20:21:55.535Z,6.90
2019-03-26T20:24:25.619Z,6.00
2019-03-26T20:26:55.643Z,6.37
2019-03-26T20:29:25.738Z,5.87
2019-03-26T20:31:55.678Z,6.00
2019-03-26T20:34:25.722Z,6.67
2019-03-26T20:36:55.679Z,6.70
2019-03-26T20:39:25.652Z,6.63
2019-03-26T20:41:55.600Z,6.47
2019-03-26T20:44:25.584Z,7.23
2019-03-26T20:46:55.628Z,6.67
2019-03-26T20:49:25.695Z,7.03
2019-03-26T20:51:55.706Z,6.40
2019-03-26T20:54:25.841Z,6.47
2019-03-26T20:56:55.782Z,6.07
2019-03-26T20:59:26.495Z,6.23
2019-03-26T21:01:56.836Z,5.67
2019-03-26T21:04:26.784Z,5.70
2019-03-26T21:06:56.872Z,5.80
2019-03-26T21:09:26.803Z,5.67
2019-03-26T21:11:57.010Z,6.20
2019-03-26T21:14:26.964Z,6.87
2019-03-26T21:16:56.915Z,6.20
2019-03-26T21:19:26.885Z,6.03
2019-03-26T21:21:56.823Z,6.40
2019-03-26T21:24:26.795Z,5.83
2019-03-26T21:26:57.818Z,4.97
2019-03-26T21:29:28.910Z,6.03
2019-03-26T21:31:58.855Z,6.10
2019-03-26T21:34:30.655Z,5.23
2019-03-26T21:37:00.468Z,5.77
2019-03-26T21:39:30.431Z,6.00
2019-03-26T21:42:00.378Z,5.60
2019-03-26T21:44:30.346Z,5.50
2019-03-26T21:47:00.292Z,6.20
2019-03-26T21:49:30.271Z,5.50
2019-03-26T21:52:00.226Z,5.37
2019-03-26T21:54:30.192Z,6.83
2019-03-26T21:57:00.203Z,5.43
2019-03-26T21:59:31.343Z,7.17
2019-03-26T22:02:01.292Z,8.97
2019-03-26T22:04:31.431Z,8.43
2019-03-26T22:07:02.449Z,7.53
2019-03-26T22:09:32.416Z,7.63
2019-03-26T22:12:02.358Z,14.87
2019-03-26T22:14:32.326Z,7.13
2019-03-26T22:17:02.356Z,6.13
2019-03-26T22:19:32.324Z,5.87
2019-03-26T22:22:02.267Z,5.93
2019-03-26T22:24:32.242Z,5.13
2019-03-26T22:27:02.174Z,5.50
2019-03-26T22:29:32.139Z,6.43
2019-03-26T22:32:02.088Z,5.30
2019-03-26T22:34:32.060Z,5.40
2019-03-26T22:37:02.007Z,6.43
2019-03-26T22:39:33.043Z,6.70
2019-03-26T22:42:03.055Z,5.97
2019-03-26T22:44:33.034Z,5.67
2019-03-26T22:47:02.974Z,7.83
2019-03-26T22:49:33.017Z,5.77
2019-03-26T22:52:03.513Z,7.30
2019-03-26T22:54:33.467Z,7.47
2019-03-26T22:57:03.435Z,7.80
2019-03-26T22:59:33.383Z,6.70
2019-03-26T23:02:03.416Z,6.37
2019-03-26T23:04:33.355Z,5.93
2019-03-26T23:07:03.499Z,5.47
2019-03-26T23:09:34.415Z,5.53
2019-03-26T23:12:04.388Z,6.30
2019-03-26T23:14:44.547Z,5.50
2019-03-26T23:17:06.164Z,4.93
2019-03-26T23:19:36.102Z,5.27
2019-03-26T23:22:06.068Z,5.40
2019-03-26T23:24:36.016Z,5.43
2019-03-26T23:27:06.054Z,5.87
2019-03-26T23:29:36.167Z,8.17
2019-03-26T23:32:07.208Z,9.70
2019-03-26T23:34:37.267Z,6.30
2019-03-26T23:37:07.254Z,4.10
2019-03-26T23:39:37.198Z,3.97
2019-03-26T23:42:07.163Z,4.07
2019-03-26T23:44:37.120Z,3.77
2019-03-26T23:47:07.087Z,4.23
2019-03-26T23:49:37.026Z,3.70
2019-03-26T23:52:06.995Z,3.10
2019-03-26T23:54:36.938Z,3.27
2019-03-26T23:57:07.874Z,3.07
2019-03-26T23:59:38.792Z,2.70
